sensor_id;sensor_type;location;lat;lon;timestamp;P1;durP1;ratioP1;P2;durP2;ratioP2
4186;SDS011;2107;52.306;10.484;2023-06-22T00:00:00;0.10;;;0.10;;
4186;SDS011;2107;52.306;10.484;2023-06-22T00:02:33;0.20;;;0.20;;
4186;SDS011;2107;52.306;10.484;2023-06-22T00:05:00;0.10;;;0.10;;
4186;SDS011;2107;52.306;10.484;2023-06-22T00:07:26;0.20;;;0.20;;
4186;SDS011;2107;52.306;10.484;2023-06-22T00:09:53;0.10;;;0.10;;
4186;SDS011;2107;52.306;10.484;2023-06-22T00:12:20;0.10;;;0.10;;
4186;SDS011;2107;52.306;10.484;2023-06-22T00:14:48;0.10;;;0.10;;
4186;SDS011;2107;52.306;10.484;2023-06-22T00:17:15;0.10;;;0.10;;
4186;SDS011;2107;52.306;10.484;2023-06-22T00:19:42;0.10;;;0.10;;
4186;SDS011;2107;52.306;10.484;2023-06-22T00:22:09;0.10;;;0.10;;
4186;SDS011;2107;52.306;10.484;2023-06-22T00:24:36;0.10;;;0.10;;
4186;SDS011;2107;52.306;10.484;2023-06-22T00:27:03;0.10;;;0.10;;
4186;SDS011;2107;52.306;10.484;2023-06-22T00:29:31;0.10;;;0.10;;
4186;SDS011;2107;52.306;10.484;2023-06-22T00:31:59;0.10;;;0.10;;
4186;SDS011;2107;52.306;10.484;2023-06-22T00:34:25;0.10;;;0.10;;
4186;SDS011;2107;52.306;10.484;2023-06-22T00:36:52;0.10;;;0.10;;
4186;SDS011;2107;52.306;10.484;2023-06-22T00:39:19;0.10;;;0.10;;
4186;SDS011;2107;52.306;10.484;2023-06-22T00:41:46;0.10;;;0.10;;
4186;SDS011;2107;52.306;10.484;2023-06-22T00:44:13;0.10;;;0.10;;
4186;SDS011;2107;52.306;10.484;2023-06-22T00:46:40;0.10;;;0.10;;
4186;SDS011;2107;52.306;10.484;2023-06-22T00:49:08;0.10;;;0.10;;
4186;SDS011;2107;52.306;10.484;2023-06-22T00:51:35;0.10;;;0.10;;
4186;SDS011;2107;52.306;10.484;2023-06-22T00:54:04;0.10;;;0.10;;
4186;SDS011;2107;52.306;10.484;2023-06-22T00:56:31;0.10;;;0.10;;
4186;SDS011;2107;52.306;10.484;2023-06-22T00:59:02;0.10;;;0.10;;
4186;SDS011;2107;52.306;10.484;2023-06-22T01:01:29;0.20;;;0.20;;
4186;SDS011;2107;52.306;10.484;2023-06-22T01:03:57;0.10;;;0.10;;
4186;SDS011;2107;52.306;10.484;2023-06-22T01:06:28;0.10;;;0.10;;
4186;SDS011;2107;52.306;10.484;2023-06-22T01:09:06;0.10;;;0.10;;
4186;SDS011;2107;52.306;10.484;2023-06-22T01:11:37;0.10;;;0.10;;
4186;SDS011;2107;52.306;10.484;2023-06-22T01:14:11;0.10;;;0.10;;
4186;SDS011;2107;52.306;10.484;2023-06-22T01:16:41;0.10;;;0.10;;
4186;SDS011;2107;52.306;10.484;2023-06-22T01:19:14;0.20;;;0.20;;
4186;SDS011;2107;52.306;10.484;2023-06-22T01:21:56;0.20;;;0.20;;
4186;SDS011;2107;52.306;10.484;2023-06-22T01:24:27;0.20;;;0.20;;
4186;SDS011;2107;52.306;10.484;2023-06-22T01:27:05;0.20;;;0.20;;
4186;SDS011;2107;52.306;10.484;2023-06-22T01:29:48;0.20;;;0.20;;
4186;SDS011;2107;52.306;10.484;2023-06-22T01:32:16;0.20;;;0.20;;
4186;SDS011;2107;52.306;10.484;2023-06-22T01:34:44;0.20;;;0.20;;
4186;SDS011;2107;52.306;10.484;2023-06-22T01:37:12;0.20;;;0.20;;
4186;SDS011;2107;52.306;10.484;2023-06-22T01:39:40;0.20;;;0.20;;
4186;SDS011;2107;52.306;10.484;2023-06-22T01:42:08;0.20;;;0.20;;
4186;SDS011;2107;52.306;10.484;2023-06-22T01:44:36;0.20;;;0.20;;
4186;SDS011;2107;52.306;10.484;2023-06-22T01:47:05;0.30;;;0.30;;
4186;SDS011;2107;52.306;10.484;2023-06-22T01:49:33;0.20;;;0.20;;
4186;SDS011;2107;52.306;10.484;2023-06-22T01:52:00;0.20;;;0.20;;
4186;SDS011;2107;52.306;10.484;2023-06-22T01:54:26;0.20;;;0.20;;
4186;SDS011;2107;52.306;10.484;2023-06-22T01:56:53;0.30;;;0.30;;
4186;SDS011;2107;52.306;10.484;2023-06-22T01:59:22;0.20;;;0.20;;
4186;SDS011;2107;52.306;10.484;2023-06-22T02:01:56;0.20;;;0.20;;
4186;SDS011;2107;52.306;10.484;2023-06-22T02:04:31;0.20;;;0.20;;
4186;SDS011;2107;52.306;10.484;2023-06-22T02:07:05;0.30;;;0.30;;
4186;SDS011;2107;52.306;10.484;2023-06-22T02:09:38;0.20;;;0.20;;
4186;SDS011;2107;52.306;10.484;2023-06-22T02:12:08;0.20;;;0.20;;
4186;SDS011;2107;52.306;10.484;2023-06-22T02:14:37;0.30;;;0.30;;
4186;SDS011;2107;52.306;10.484;2023-06-22T02:17:04;0.20;;;0.20;;
4186;SDS011;2107;52.306;10.484;2023-06-22T02:19:35;0.20;;;0.20;;
4186;SDS011;2107;52.306;10.484;2023-06-22T02:22:03;0.20;;;0.20;;
4186;SDS011;2107;52.306;10.484;2023-06-22T02:24:30;0.20;;;0.20;;
4186;SDS011;2107;52.306;10.484;2023-06-22T02:26:58;0.20;;;0.20;;
4186;SDS011;2107;52.306;10.484;2023-06-22T02:29:26;0.20;;;0.20;;
4186;SDS011;2107;52.306;10.484;2023-06-22T02:31:53;0.30;;;0.30;;
4186;SDS011;2107;52.306;10.484;2023-06-22T02:34:21;0.40;;;0.40;;
4186;SDS011;2107;52.306;10.484;2023-06-22T02:36:49;0.20;;;0.20;;
4186;SDS011;2107;52.306;10.484;2023-06-22T02:39:18;0.30;;;0.30;;
4186;SDS011;2107;52.306;10.484;2023-06-22T02:41:47;0.50;;;0.50;;
4186;SDS011;2107;52.306;10.484;2023-06-22T02:44:14;0.30;;;0.30;;
4186;SDS011;2107;52.306;10.484;2023-06-22T02:46:40;0.20;;;0.20;;
4186;SDS011;2107;52.306;10.484;2023-06-22T02:49:07;0.40;;;0.40;;
4186;SDS011;2107;52.306;10.484;2023-06-22T02:51:34;0.30;;;0.30;;
4186;SDS011;2107;52.306;10.484;2023-06-22T02:54:03;0.30;;;0.30;;
4186;SDS011;2107;52.306;10.484;2023-06-22T02:56:30;0.40;;;0.40;;
4186;SDS011;2107;52.306;10.484;2023-06-22T02:58:57;0.20;;;0.20;;
4186;SDS011;2107;52.306;10.484;2023-06-22T03:01:25;0.30;;;0.30;;
4186;SDS011;2107;52.306;10.484;2023-06-22T03:03:53;0.40;;;0.40;;
4186;SDS011;2107;52.306;10.484;2023-06-22T03:06:19;0.30;;;0.30;;
4186;SDS011;2107;52.306;10.484;2023-06-22T03:08:48;0.30;;;0.30;;
4186;SDS011;2107;52.306;10.484;2023-06-22T03:11:17;0.40;;;0.40;;
4186;SDS011;2107;52.306;10.484;2023-06-22T03:13:44;0.30;;;0.30;;
4186;SDS011;2107;52.306;10.484;2023-06-22T03:16:11;0.30;;;0.30;;
4186;SDS011;2107;52.306;10.484;2023-06-22T03:18:38;0.30;;;0.30;;
4186;SDS011;2107;52.306;10.484;2023-06-22T03:21:05;0.30;;;0.30;;
4186;SDS011;2107;52.306;10.484;2023-06-22T03:23:32;0.40;;;0.40;;
4186;SDS011;2107;52.306;10.484;2023-06-22T03:25:58;0.30;;;0.30;;
4186;SDS011;2107;52.306;10.484;2023-06-22T03:28:27;0.40;;;0.40;;
4186;SDS011;2107;52.306;10.484;2023-06-22T03:30:53;0.40;;;0.40;;
4186;SDS011;2107;52.306;10.484;2023-06-22T03:33:20;0.50;;;0.50;;
4186;SDS011;2107;52.306;10.484;2023-06-22T03:35:47;0.50;;;0.50;;
4186;SDS011;2107;52.306;10.484;2023-06-22T03:38:15;0.40;;;0.40;;
4186;SDS011;2107;52.306;10.484;2023-06-22T03:40:42;0.40;;;0.40;;
4186;SDS011;2107;52.306;10.484;2023-06-22T03:43:09;0.40;;;0.40;;
4186;SDS011;2107;52.306;10.484;2023-06-22T03:45:37;0.40;;;0.40;;
4186;SDS011;2107;52.306;10.484;2023-06-22T03:48:05;0.40;;;0.40;;
4186;SDS011;2107;52.306;10.484;2023-06-22T03:50:32;0.40;;;0.40;;
4186;SDS011;2107;52.306;10.484;2023-06-22T03:52:59;0.30;;;0.30;;
4186;SDS011;2107;52.306;10.484;2023-06-22T03:55:26;0.40;;;0.40;;
4186;SDS011;2107;52.306;10.484;2023-06-22T03:57:53;0.50;;;0.50;;
4186;SDS011;2107;52.306;10.484;2023-06-22T04:00:22;0.60;;;0.60;;
4186;SDS011;2107;52.306;10.484;2023-06-22T04:02:50;0.57;;;0.57;;
4186;SDS011;2107;52.306;10.484;2023-06-22T04:05:17;0.60;;;0.60;;
4186;SDS011;2107;52.306;10.484;2023-06-22T04:07:44;0.90;;;0.90;;
4186;SDS011;2107;52.306;10.484;2023-06-22T04:10:11;0.80;;;0.80;;
4186;SDS011;2107;52.306;10.484;2023-06-22T04:12:38;0.93;;;0.93;;
4186;SDS011;2107;52.306;10.484;2023-06-22T04:15:05;1.10;;;1.10;;
4186;SDS011;2107;52.306;10.484;2023-06-22T04:17:33;0.80;;;0.80;;
4186;SDS011;2107;52.306;10.484;2023-06-22T04:20:01;0.90;;;0.90;;
4186;SDS011;2107;52.306;10.484;2023-06-22T04:22:29;0.73;;;0.73;;
4186;SDS011;2107;52.306;10.484;2023-06-22T04:24:56;0.90;;;0.90;;
4186;SDS011;2107;52.306;10.484;2023-06-22T04:27:23;1.20;;;1.20;;
4186;SDS011;2107;52.306;10.484;2023-06-22T04:29:50;0.80;;;0.80;;
4186;SDS011;2107;52.306;10.484;2023-06-22T04:32:17;1.00;;;1.00;;
4186;SDS011;2107;52.306;10.484;2023-06-22T04:34:44;0.73;;;0.73;;
4186;SDS011;2107;52.306;10.484;2023-06-22T04:37:12;0.80;;;0.80;;
4186;SDS011;2107;52.306;10.484;2023-06-22T04:39:40;0.80;;;0.80;;
4186;SDS011;2107;52.306;10.484;2023-06-22T04:42:07;0.83;;;0.83;;
4186;SDS011;2107;52.306;10.484;2023-06-22T04:44:34;0.70;;;0.70;;
4186;SDS011;2107;52.306;10.484;2023-06-22T04:47:01;0.70;;;0.70;;
4186;SDS011;2107;52.306;10.484;2023-06-22T04:49:31;0.60;;;0.60;;
4186;SDS011;2107;52.306;10.484;2023-06-22T04:51:59;0.80;;;0.80;;
4186;SDS011;2107;52.306;10.484;2023-06-22T04:54:28;0.80;;;0.80;;
4186;SDS011;2107;52.306;10.484;2023-06-22T04:56:57;1.00;;;1.00;;
4186;SDS011;2107;52.306;10.484;2023-06-22T04:59:24;0.70;;;0.70;;
4186;SDS011;2107;52.306;10.484;2023-06-22T05:01:54;0.90;;;0.90;;
4186;SDS011;2107;52.306;10.484;2023-06-22T05:04:22;0.80;;;0.80;;
4186;SDS011;2107;52.306;10.484;2023-06-22T05:06:49;0.97;;;0.97;;
4186;SDS011;2107;52.306;10.484;2023-06-22T05:09:16;0.83;;;0.83;;
4186;SDS011;2107;52.306;10.484;2023-06-22T05:11:45;0.90;;;0.90;;
4186;SDS011;2107;52.306;10.484;2023-06-22T05:14:12;0.80;;;0.80;;
4186;SDS011;2107;52.306;10.484;2023-06-22T05:16:40;0.80;;;0.80;;
4186;SDS011;2107;52.306;10.484;2023-06-22T05:19:08;0.60;;;0.60;;
4186;SDS011;2107;52.306;10.484;2023-06-22T05:21:35;0.67;;;0.67;;
4186;SDS011;2107;52.306;10.484;2023-06-22T05:24:02;0.80;;;0.80;;
4186;SDS011;2107;52.306;10.484;2023-06-22T05:26:30;0.80;;;0.80;;
4186;SDS011;2107;52.306;10.484;2023-06-22T05:28:59;0.77;;;0.77;;
4186;SDS011;2107;52.306;10.484;2023-06-22T05:31:27;0.80;;;0.80;;
4186;SDS011;2107;52.306;10.484;2023-06-22T05:33:54;0.80;;;0.80;;
4186;SDS011;2107;52.306;10.484;2023-06-22T05:36:21;0.90;;;0.90;;
4186;SDS011;2107;52.306;10.484;2023-06-22T05:38:50;0.90;;;0.90;;
4186;SDS011;2107;52.306;10.484;2023-06-22T05:41:17;0.90;;;0.90;;
4186;SDS011;2107;52.306;10.484;2023-06-22T05:43:44;1.00;;;1.00;;
4186;SDS011;2107;52.306;10.484;2023-06-22T05:46:12;0.97;;;0.97;;
4186;SDS011;2107;52.306;10.484;2023-06-22T05:48:39;1.00;;;1.00;;
4186;SDS011;2107;52.306;10.484;2023-06-22T05:51:06;0.90;;;0.90;;
4186;SDS011;2107;52.306;10.484;2023-06-22T05:53:33;0.70;;;0.70;;
4186;SDS011;2107;52.306;10.484;2023-06-22T05:56:00;0.90;;;0.90;;
4186;SDS011;2107;52.306;10.484;2023-06-22T05:58:26;0.80;;;0.80;;
4186;SDS011;2107;52.306;10.484;2023-06-22T06:00:53;0.80;;;0.80;;
4186;SDS011;2107;52.306;10.484;2023-06-22T06:03:22;0.80;;;0.80;;
4186;SDS011;2107;52.306;10.484;2023-06-22T06:05:48;0.70;;;0.70;;
4186;SDS011;2107;52.306;10.484;2023-06-22T06:08:15;0.73;;;0.73;;
4186;SDS011;2107;52.306;10.484;2023-06-22T06:10:42;0.70;;;0.70;;
4186;SDS011;2107;52.306;10.484;2023-06-22T06:13:09;0.90;;;0.90;;
4186;SDS011;2107;52.306;10.484;2023-06-22T06:15:36;0.90;;;0.90;;
4186;SDS011;2107;52.306;10.484;2023-06-22T06:18:03;0.70;;;0.70;;
4186;SDS011;2107;52.306;10.484;2023-06-22T06:20:32;0.50;;;0.50;;
4186;SDS011;2107;52.306;10.484;2023-06-22T06:22:59;0.70;;;0.70;;
4186;SDS011;2107;52.306;10.484;2023-06-22T06:25:26;0.70;;;0.70;;
4186;SDS011;2107;52.306;10.484;2023-06-22T06:27:53;0.57;;;0.57;;
4186;SDS011;2107;52.306;10.484;2023-06-22T06:30:21;0.77;;;0.77;;
4186;SDS011;2107;52.306;10.484;2023-06-22T06:32:49;0.70;;;0.70;;
4186;SDS011;2107;52.306;10.484;2023-06-22T06:35:16;0.60;;;0.60;;
4186;SDS011;2107;52.306;10.484;2023-06-22T06:37:46;1.00;;;1.00;;
4186;SDS011;2107;52.306;10.484;2023-06-22T06:40:14;0.80;;;0.80;;
4186;SDS011;2107;52.306;10.484;2023-06-22T06:42:42;0.70;;;0.70;;
4186;SDS011;2107;52.306;10.484;2023-06-22T06:45:10;0.67;;;0.67;;
4186;SDS011;2107;52.306;10.484;2023-06-22T06:47:38;0.63;;;0.63;;
4186;SDS011;2107;52.306;10.484;2023-06-22T06:50:05;0.70;;;0.70;;
4186;SDS011;2107;52.306;10.484;2023-06-22T06:52:33;0.73;;;0.73;;
4186;SDS011;2107;52.306;10.484;2023-06-22T06:55:02;0.70;;;0.70;;
4186;SDS011;2107;52.306;10.484;2023-06-22T06:57:33;0.70;;;0.70;;
4186;SDS011;2107;52.306;10.484;2023-06-22T07:00:00;0.90;;;0.90;;
4186;SDS011;2107;52.306;10.484;2023-06-22T07:02:27;0.90;;;0.90;;
4186;SDS011;2107;52.306;10.484;2023-06-22T07:04:54;0.80;;;0.80;;
4186;SDS011;2107;52.306;10.484;2023-06-22T07:07:21;1.00;;;1.00;;
4186;SDS011;2107;52.306;10.484;2023-06-22T07:09:48;0.93;;;0.93;;
4186;SDS011;2107;52.306;10.484;2023-06-22T07:12:16;1.00;;;1.00;;
4186;SDS011;2107;52.306;10.484;2023-06-22T07:14:43;1.00;;;1.00;;
4186;SDS011;2107;52.306;10.484;2023-06-22T07:17:10;1.00;;;1.00;;
4186;SDS011;2107;52.306;10.484;2023-06-22T07:19:36;1.10;;;1.10;;
4186;SDS011;2107;52.306;10.484;2023-06-22T07:22:04;1.03;;;1.03;;
4186;SDS011;2107;52.306;10.484;2023-06-22T07:24:31;1.00;;;1.00;;
4186;SDS011;2107;52.306;10.484;2023-06-22T07:26:58;1.00;;;1.00;;
4186;SDS011;2107;52.306;10.484;2023-06-22T07:29:26;1.00;;;1.00;;
4186;SDS011;2107;52.306;10.484;2023-06-22T07:31:53;0.80;;;0.80;;
4186;SDS011;2107;52.306;10.484;2023-06-22T07:34:21;0.90;;;0.90;;
4186;SDS011;2107;52.306;10.484;2023-06-22T07:36:48;1.00;;;1.00;;
4186;SDS011;2107;52.306;10.484;2023-06-22T07:39:15;0.70;;;0.70;;
4186;SDS011;2107;52.306;10.484;2023-06-22T07:41:42;1.40;;;1.40;;
4186;SDS011;2107;52.306;10.484;2023-06-22T07:44:09;1.30;;;1.30;;
4186;SDS011;2107;52.306;10.484;2023-06-22T07:46:37;1.30;;;1.30;;
4186;SDS011;2107;52.306;10.484;2023-06-22T07:49:04;1.10;;;1.10;;
4186;SDS011;2107;52.306;10.484;2023-06-22T07:51:33;1.50;;;1.50;;
4186;SDS011;2107;52.306;10.484;2023-06-22T07:53:59;1.10;;;1.10;;
4186;SDS011;2107;52.306;10.484;2023-06-22T07:56:26;1.20;;;1.20;;
4186;SDS011;2107;52.306;10.484;2023-06-22T07:58:53;1.30;;;1.30;;
4186;SDS011;2107;52.306;10.484;2023-06-22T08:01:23;1.20;;;1.20;;
4186;SDS011;2107;52.306;10.484;2023-06-22T08:03:51;1.20;;;1.20;;
4186;SDS011;2107;52.306;10.484;2023-06-22T08:06:18;1.23;;;1.23;;
4186;SDS011;2107;52.306;10.484;2023-06-22T08:08:45;1.30;;;1.30;;
4186;SDS011;2107;52.306;10.484;2023-06-22T08:11:14;1.20;;;1.20;;
4186;SDS011;2107;52.306;10.484;2023-06-22T08:13:41;1.40;;;1.40;;
4186;SDS011;2107;52.306;10.484;2023-06-22T08:16:08;1.30;;;1.30;;
4186;SDS011;2107;52.306;10.484;2023-06-22T08:18:35;1.23;;;1.23;;
4186;SDS011;2107;52.306;10.484;2023-06-22T08:21:04;1.40;;;1.40;;
4186;SDS011;2107;52.306;10.484;2023-06-22T08:23:31;1.40;;;1.40;;
4186;SDS011;2107;52.306;10.484;2023-06-22T08:25:58;0.90;;;0.90;;
4186;SDS011;2107;52.306;10.484;2023-06-22T08:28:25;1.30;;;1.30;;
4186;SDS011;2107;52.306;10.484;2023-06-22T08:30:51;1.50;;;1.50;;
4186;SDS011;2107;52.306;10.484;2023-06-22T08:33:20;1.10;;;1.10;;
4186;SDS011;2107;52.306;10.484;2023-06-22T08:35:48;1.10;;;1.10;;
4186;SDS011;2107;52.306;10.484;2023-06-22T08:38:16;1.20;;;1.20;;
4186;SDS011;2107;52.306;10.484;2023-06-22T08:40:43;1.10;;;1.10;;
4186;SDS011;2107;52.306;10.484;2023-06-22T08:43:10;0.80;;;0.80;;
4186;SDS011;2107;52.306;10.484;2023-06-22T08:45:37;0.70;;;0.70;;
4186;SDS011;2107;52.306;10.484;2023-06-22T08:48:04;0.60;;;0.60;;
4186;SDS011;2107;52.306;10.484;2023-06-22T08:50:31;0.60;;;0.60;;
4186;SDS011;2107;52.306;10.484;2023-06-22T08:52:58;0.70;;;0.70;;
4186;SDS011;2107;52.306;10.484;2023-06-22T08:55:26;0.63;;;0.63;;
4186;SDS011;2107;52.306;10.484;2023-06-22T08:57:53;0.70;;;0.70;;
4186;SDS011;2107;52.306;10.484;2023-06-22T09:00:20;0.70;;;0.70;;
4186;SDS011;2107;52.306;10.484;2023-06-22T09:02:47;0.80;;;0.80;;
4186;SDS011;2107;52.306;10.484;2023-06-22T09:05:14;0.90;;;0.90;;
4186;SDS011;2107;52.306;10.484;2023-06-22T09:07:41;1.00;;;1.00;;
4186;SDS011;2107;52.306;10.484;2023-06-22T09:10:08;0.80;;;0.80;;
4186;SDS011;2107;52.306;10.484;2023-06-22T09:12:37;0.73;;;0.73;;
4186;SDS011;2107;52.306;10.484;2023-06-22T09:15:05;0.90;;;0.90;;
4186;SDS011;2107;52.306;10.484;2023-06-22T09:17:33;0.90;;;0.90;;
4186;SDS011;2107;52.306;10.484;2023-06-22T09:20:02;0.80;;;0.80;;
4186;SDS011;2107;52.306;10.484;2023-06-22T09:22:30;0.60;;;0.60;;
4186;SDS011;2107;52.306;10.484;2023-06-22T09:24:58;0.70;;;0.70;;
4186;SDS011;2107;52.306;10.484;2023-06-22T09:27:25;0.70;;;0.70;;
4186;SDS011;2107;52.306;10.484;2023-06-22T09:29:54;0.30;;;0.30;;
4186;SDS011;2107;52.306;10.484;2023-06-22T09:32:23;0.50;;;0.50;;
4186;SDS011;2107;52.306;10.484;2023-06-22T09:34:50;0.50;;;0.50;;
4186;SDS011;2107;52.306;10.484;2023-06-22T09:37:18;0.60;;;0.60;;
4186;SDS011;2107;52.306;10.484;2023-06-22T09:39:45;0.70;;;0.70;;
4186;SDS011;2107;52.306;10.484;2023-06-22T09:42:11;0.60;;;0.60;;
4186;SDS011;2107;52.306;10.484;2023-06-22T09:44:39;0.60;;;0.60;;
4186;SDS011;2107;52.306;10.484;2023-06-22T09:47:07;0.50;;;0.50;;
4186;SDS011;2107;52.306;10.484;2023-06-22T09:49:34;0.70;;;0.70;;
4186;SDS011;2107;52.306;10.484;2023-06-22T09:52:01;0.90;;;0.90;;
4186;SDS011;2107;52.306;10.484;2023-06-22T09:54:28;0.70;;;0.70;;
4186;SDS011;2107;52.306;10.484;2023-06-22T09:56:55;0.60;;;0.60;;
4186;SDS011;2107;52.306;10.484;2023-06-22T09:59:21;0.63;;;0.63;;
4186;SDS011;2107;52.306;10.484;2023-06-22T10:01:48;0.80;;;0.80;;
4186;SDS011;2107;52.306;10.484;2023-06-22T10:04:16;0.50;;;0.50;;
4186;SDS011;2107;52.306;10.484;2023-06-22T10:06:43;0.83;;;0.83;;
4186;SDS011;2107;52.306;10.484;2023-06-22T10:09:10;0.73;;;0.73;;
4186;SDS011;2107;52.306;10.484;2023-06-22T10:11:37;0.70;;;0.70;;
4186;SDS011;2107;52.306;10.484;2023-06-22T10:14:04;0.60;;;0.60;;
4186;SDS011;2107;52.306;10.484;2023-06-22T10:16:31;0.73;;;0.73;;
4186;SDS011;2107;52.306;10.484;2023-06-22T10:19:00;0.93;;;0.93;;
4186;SDS011;2107;52.306;10.484;2023-06-22T10:21:28;1.00;;;1.00;;
4186;SDS011;2107;52.306;10.484;2023-06-22T10:23:55;1.10;;;1.10;;
4186;SDS011;2107;52.306;10.484;2023-06-22T10:26:22;1.00;;;1.00;;
4186;SDS011;2107;52.306;10.484;2023-06-22T10:28:49;0.90;;;0.90;;
4186;SDS011;2107;52.306;10.484;2023-06-22T10:31:16;1.10;;;1.10;;
4186;SDS011;2107;52.306;10.484;2023-06-22T10:33:43;1.17;;;1.17;;
4186;SDS011;2107;52.306;10.484;2023-06-22T10:36:10;1.10;;;1.10;;
4186;SDS011;2107;52.306;10.484;2023-06-22T10:38:38;1.00;;;1.00;;
4186;SDS011;2107;52.306;10.484;2023-06-22T10:41:05;0.90;;;0.90;;
4186;SDS011;2107;52.306;10.484;2023-06-22T10:43:32;0.80;;;0.80;;
4186;SDS011;2107;52.306;10.484;2023-06-22T10:45:59;0.90;;;0.90;;
4186;SDS011;2107;52.306;10.484;2023-06-22T10:48:25;0.70;;;0.70;;
4186;SDS011;2107;52.306;10.484;2023-06-22T10:50:52;0.70;;;0.70;;
4186;SDS011;2107;52.306;10.484;2023-06-22T10:53:20;0.73;;;0.73;;
4186;SDS011;2107;52.306;10.484;2023-06-22T10:55:49;0.80;;;0.80;;
4186;SDS011;2107;52.306;10.484;2023-06-22T10:58:17;0.80;;;0.80;;
4186;SDS011;2107;52.306;10.484;2023-06-22T11:00:45;1.00;;;1.00;;
4186;SDS011;2107;52.306;10.484;2023-06-22T11:03:12;1.00;;;1.00;;
4186;SDS011;2107;52.306;10.484;2023-06-22T11:05:39;1.20;;;1.20;;
4186;SDS011;2107;52.306;10.484;2023-06-22T11:08:06;0.83;;;0.83;;
4186;SDS011;2107;52.306;10.484;2023-06-22T11:10:33;1.00;;;1.00;;
4186;SDS011;2107;52.306;10.484;2023-06-22T11:13:02;0.83;;;0.83;;
4186;SDS011;2107;52.306;10.484;2023-06-22T11:15:29;0.90;;;0.90;;
4186;SDS011;2107;52.306;10.484;2023-06-22T11:17:56;0.80;;;0.80;;
4186;SDS011;2107;52.306;10.484;2023-06-22T11:20:23;1.00;;;1.00;;
4186;SDS011;2107;52.306;10.484;2023-06-22T11:22:50;0.90;;;0.90;;
4186;SDS011;2107;52.306;10.484;2023-06-22T11:25:17;0.97;;;0.97;;
4186;SDS011;2107;52.306;10.484;2023-06-22T11:27:44;1.13;;;1.13;;
4186;SDS011;2107;52.306;10.484;2023-06-22T11:30:12;1.03;;;1.03;;
4186;SDS011;2107;52.306;10.484;2023-06-22T11:32:39;1.30;;;1.30;;
4186;SDS011;2107;52.306;10.484;2023-06-22T11:35:06;1.10;;;1.10;;
4186;SDS011;2107;52.306;10.484;2023-06-22T11:37:33;1.10;;;1.10;;
4186;SDS011;2107;52.306;10.484;2023-06-22T11:40:00;1.00;;;1.00;;
4186;SDS011;2107;52.306;10.484;2023-06-22T11:42:30;1.30;;;1.30;;
4186;SDS011;2107;52.306;10.484;2023-06-22T11:44:57;1.50;;;1.50;;
4186;SDS011;2107;52.306;10.484;2023-06-22T11:47:25;1.60;;;1.60;;
4186;SDS011;2107;52.306;10.484;2023-06-22T11:49:52;1.60;;;1.60;;
4186;SDS011;2107;52.306;10.484;2023-06-22T11:52:19;1.30;;;1.30;;
4186;SDS011;2107;52.306;10.484;2023-06-22T11:54:45;1.00;;;1.00;;
4186;SDS011;2107;52.306;10.484;2023-06-22T11:57:12;1.00;;;1.00;;
4186;SDS011;2107;52.306;10.484;2023-06-22T11:59:39;1.07;;;1.07;;
4186;SDS011;2107;52.306;10.484;2023-06-22T12:02:06;1.13;;;1.13;;
4186;SDS011;2107;52.306;10.484;2023-06-22T12:04:35;1.10;;;1.10;;
4186;SDS011;2107;52.306;10.484;2023-06-22T12:07:03;1.27;;;1.27;;
4186;SDS011;2107;52.306;10.484;2023-06-22T12:09:30;1.20;;;1.20;;
4186;SDS011;2107;52.306;10.484;2023-06-22T12:11:56;1.10;;;1.10;;
4186;SDS011;2107;52.306;10.484;2023-06-22T12:14:23;1.30;;;1.30;;
4186;SDS011;2107;52.306;10.484;2023-06-22T12:16:50;1.13;;;1.13;;
4186;SDS011;2107;52.306;10.484;2023-06-22T12:19:17;0.97;;;0.97;;
4186;SDS011;2107;52.306;10.484;2023-06-22T12:21:45;1.47;;;1.47;;
4186;SDS011;2107;52.306;10.484;2023-06-22T12:24:12;1.50;;;1.50;;
4186;SDS011;2107;52.306;10.484;2023-06-22T12:26:40;1.40;;;1.40;;
4186;SDS011;2107;52.306;10.484;2023-06-22T12:29:07;1.40;;;1.40;;
4186;SDS011;2107;52.306;10.484;2023-06-22T12:31:35;1.30;;;1.30;;
4186;SDS011;2107;52.306;10.484;2023-06-22T12:34:03;1.30;;;1.30;;
4186;SDS011;2107;52.306;10.484;2023-06-22T12:36:30;1.53;;;1.53;;
4186;SDS011;2107;52.306;10.484;2023-06-22T12:38:58;1.60;;;1.60;;
4186;SDS011;2107;52.306;10.484;2023-06-22T12:41:25;1.40;;;1.40;;
4186;SDS011;2107;52.306;10.484;2023-06-22T12:43:52;1.50;;;1.50;;
4186;SDS011;2107;52.306;10.484;2023-06-22T12:46:19;1.40;;;1.40;;
4186;SDS011;2107;52.306;10.484;2023-06-22T12:48:46;1.40;;;1.40;;
4186;SDS011;2107;52.306;10.484;2023-06-22T12:51:19;1.00;;;1.00;;
4186;SDS011;2107;52.306;10.484;2023-06-22T12:53:48;1.10;;;1.10;;
4186;SDS011;2107;52.306;10.484;2023-06-22T12:56:16;1.40;;;1.40;;
4186;SDS011;2107;52.306;10.484;2023-06-22T12:58:43;1.10;;;1.10;;
4186;SDS011;2107;52.306;10.484;2023-06-22T13:01:10;1.60;;;1.60;;
4186;SDS011;2107;52.306;10.484;2023-06-22T13:03:36;1.50;;;1.50;;
4186;SDS011;2107;52.306;10.484;2023-06-22T13:06:03;1.80;;;1.80;;
4186;SDS011;2107;52.306;10.484;2023-06-22T13:08:30;1.70;;;1.70;;
4186;SDS011;2107;52.306;10.484;2023-06-22T13:10:57;1.80;;;1.80;;
4186;SDS011;2107;52.306;10.484;2023-06-22T13:13:25;1.20;;;1.20;;
4186;SDS011;2107;52.306;10.484;2023-06-22T13:15:53;1.50;;;1.50;;
4186;SDS011;2107;52.306;10.484;2023-06-22T13:18:19;1.60;;;1.60;;
4186;SDS011;2107;52.306;10.484;2023-06-22T13:20:46;1.40;;;1.40;;
4186;SDS011;2107;52.306;10.484;2023-06-22T13:23:13;1.50;;;1.50;;
4186;SDS011;2107;52.306;10.484;2023-06-22T13:25:40;1.60;;;1.60;;
4186;SDS011;2107;52.306;10.484;2023-06-22T13:28:07;1.70;;;1.70;;
4186;SDS011;2107;52.306;10.484;2023-06-22T13:30:36;1.10;;;1.10;;
4186;SDS011;2107;52.306;10.484;2023-06-22T13:33:03;1.00;;;1.00;;
4186;SDS011;2107;52.306;10.484;2023-06-22T13:35:30;1.10;;;1.10;;
4186;SDS011;2107;52.306;10.484;2023-06-22T13:37:57;1.10;;;1.10;;
4186;SDS011;2107;52.306;10.484;2023-06-22T13:40:24;1.20;;;1.20;;
4186;SDS011;2107;52.306;10.484;2023-06-22T13:42:51;1.10;;;1.10;;
4186;SDS011;2107;52.306;10.484;2023-06-22T13:45:17;1.30;;;1.30;;
4186;SDS011;2107;52.306;10.484;2023-06-22T13:47:46;1.30;;;1.30;;
4186;SDS011;2107;52.306;10.484;2023-06-22T13:50:13;1.30;;;1.30;;
4186;SDS011;2107;52.306;10.484;2023-06-22T13:52:40;1.60;;;1.60;;
4186;SDS011;2107;52.306;10.484;2023-06-22T13:55:08;1.40;;;1.40;;
4186;SDS011;2107;52.306;10.484;2023-06-22T13:57:36;1.30;;;1.30;;
4186;SDS011;2107;52.306;10.484;2023-06-22T14:00:03;1.30;;;1.30;;
4186;SDS011;2107;52.306;10.484;2023-06-22T14:02:31;1.40;;;1.40;;
4186;SDS011;2107;52.306;10.484;2023-06-22T14:04:59;1.27;;;1.27;;
4186;SDS011;2107;52.306;10.484;2023-06-22T14:07:27;1.33;;;1.33;;
4186;SDS011;2107;52.306;10.484;2023-06-22T14:09:55;1.30;;;1.30;;
4186;SDS011;2107;52.306;10.484;2023-06-22T14:12:24;1.20;;;1.20;;
4186;SDS011;2107;52.306;10.484;2023-06-22T14:14:54;1.30;;;1.30;;
4186;SDS011;2107;52.306;10.484;2023-06-22T14:17:23;1.23;;;1.23;;
4186;SDS011;2107;52.306;10.484;2023-06-22T14:19:51;1.30;;;1.30;;
4186;SDS011;2107;52.306;10.484;2023-06-22T14:22:20;1.20;;;1.20;;
4186;SDS011;2107;52.306;10.484;2023-06-22T14:24:48;1.20;;;1.20;;
4186;SDS011;2107;52.306;10.484;2023-06-22T14:27:15;1.20;;;1.20;;
4186;SDS011;2107;52.306;10.484;2023-06-22T14:29:42;1.10;;;1.10;;
4186;SDS011;2107;52.306;10.484;2023-06-22T14:32:09;1.00;;;1.00;;
4186;SDS011;2107;52.306;10.484;2023-06-22T14:34:36;1.10;;;1.10;;
4186;SDS011;2107;52.306;10.484;2023-06-22T14:37:05;1.30;;;1.30;;
4186;SDS011;2107;52.306;10.484;2023-06-22T14:39:33;1.43;;;1.43;;
4186;SDS011;2107;52.306;10.484;2023-06-22T14:42:00;1.40;;;1.40;;
4186;SDS011;2107;52.306;10.484;2023-06-22T14:44:28;1.27;;;1.27;;
4186;SDS011;2107;52.306;10.484;2023-06-22T14:46:55;1.40;;;1.40;;
4186;SDS011;2107;52.306;10.484;2023-06-22T14:49:22;1.40;;;1.40;;
4186;SDS011;2107;52.306;10.484;2023-06-22T14:51:51;1.50;;;1.50;;
4186;SDS011;2107;52.306;10.484;2023-06-22T14:54:25;1.67;;;1.67;;
4186;SDS011;2107;52.306;10.484;2023-06-22T14:57:02;2.10;;;2.10;;
4186;SDS011;2107;52.306;10.484;2023-06-22T14:59:30;1.60;;;1.60;;
4186;SDS011;2107;52.306;10.484;2023-06-22T15:02:00;1.30;;;1.30;;